Time;durP1;ratioP1;P1;durP2;ratioP2;P2;SDS_P1;SDS_P2;PMS_P1;PMS_P2;Temp;Humidity;BMP_temperature;BMP_pressure;BME280_temperature;BME280_humidity;BME280_pressure;Samples;Min_cycle;Max_cycle;Signal;HPM_P1;HPM_P2
2023/01/19 00:01:17;;;;;;;22.70;3.10;;;;;;;16.04;50.65;96096.00;5024112;28;20039;-83
2023/01/19 00:03:43;;;;;;;16.25;3.00;;;;;;;15.94;51.18;96109.63;5010449;28;20088;-82
2023/01/19 00:06:09;;;;;;;21.55;2.97;;;;;;;15.89;51.21;96121.91;5015667;28;20029;-83
2023/01/19 00:08:34;;;;;;;20.13;3.17;;;;;;;15.86;50.85;96101.50;5013903;28;20035;-83
2023/01/19 00:11:01;;;;;;;31.02;3.58;;;;;;;16.01;50.20;96104.41;5019635;28;20033;-82
2023/01/19 00:13:27;;;;;;;14.50;3.38;;;;;;;16.08;49.91;96106.31;5013233;28;20394;-82
2023/01/19 00:15:52;;;;;;;21.65;3.50;;;;;;;16.13;49.96;96095.00;5017845;28;20119;-83
2023/01/19 00:18:18;;;;;;;18.95;3.05;;;;;;;16.25;49.28;96113.41;5022992;28;20083;-83
2023/01/19 00:20:47;;;;;;;7.93;2.80;;;;;;;16.36;48.70;96093.38;4999318;28;20060;-83
2023/01/19 00:23:13;;;;;;;15.85;3.05;;;;;;;16.42;48.29;96100.81;5015993;28;20056;-82
2023/01/19 00:25:41;;;;;;;20.90;2.95;;;;;;;16.39;48.74;96098.44;5007936;28;20037;-83
2023/01/19 00:28:14;;;;;;;18.02;3.13;;;;;;;16.32;48.86;96108.22;5024607;28;20036;-82
2023/01/19 00:30:41;;;;;;;17.35;2.75;;;;;;;16.26;49.05;96103.47;4999365;28;20128;-82
2023/01/19 00:33:07;;;;;;;20.80;3.20;;;;;;;16.22;49.17;96096.72;4999552;28;20112;-82
2023/01/19 00:35:33;;;;;;;17.30;3.03;;;;;;;16.21;49.08;96109.34;5015806;28;20116;-83
2023/01/19 00:37:59;;;;;;;22.77;3.38;;;;;;;16.20;49.21;96104.13;5032994;28;20047;-81
2023/01/19 00:40:26;;;;;;;13.27;2.58;;;;;;;16.11;49.65;96099.72;5030350;28;20115;-82
2023/01/19 00:42:52;;;;;;;20.58;3.30;;;;;;;16.10;49.58;96114.22;5013798;28;20063;-83
2023/01/19 00:45:22;;;;;;;27.38;3.15;;;;;;;16.06;49.52;96088.56;5008170;28;20112;-83
2023/01/19 00:47:53;;;;;;;25.50;3.17;;;;;;;15.98;49.69;96093.94;5031593;28;20466;-82
2023/01/19 00:50:19;;;;;;;22.58;3.33;;;;;;;16.05;49.72;96106.63;5005395;28;20068;-83
2023/01/19 00:52:45;;;;;;;19.55;3.80;;;;;;;16.01;49.47;96105.25;5013658;28;20037;-82
2023/01/19 00:55:12;;;;;;;26.67;2.88;;;;;;;16.00;49.71;96089.22;5035297;28;20032;-83
2023/01/19 00:57:39;;;;;;;14.57;2.55;;;;;;;16.01;49.43;96090.94;5035233;28;20036;-82
2023/01/19 01:00:10;;;;;;;29.60;3.15;;;;;;;15.94;49.73;96087.19;5019314;28;20032;-83
2023/01/19 01:02:39;;;;;;;31.33;3.38;;;;;;;15.88;49.50;96075.22;5019123;28;20087;-83
2023/01/19 01:05:05;;;;;;;30.40;3.28;;;;;;;15.93;48.81;96075.59;5026750;28;20109;-83
2023/01/19 01:07:39;;;;;;;31.55;3.75;;;;;;;15.99;48.61;96068.69;5035318;28;20056;-83
2023/01/19 01:10:12;;;;;;;17.73;3.63;;;;;;;16.02;48.67;96085.38;5035675;28;20503;-81
2023/01/19 01:12:38;;;;;;;24.02;3.83;;;;;;;16.08;48.54;96075.78;5017979;28;20026;-82
2023/01/19 01:15:05;;;;;;;24.90;3.38;;;;;;;16.01;48.76;96086.38;5028765;28;20032;-83
2023/01/19 01:17:31;;;;;;;20.42;2.85;;;;;;;16.17;47.53;96074.78;5018522;28;20114;-83
2023/01/19 01:19:57;;;;;;;20.30;2.45;;;;;;;16.33;46.69;96082.06;5032923;28;20072;-83
2023/01/19 01:22:22;;;;;;;17.60;2.25;;;;;;;16.36;46.62;96090.69;5015180;28;20033;-83
2023/01/19 01:24:48;;;;;;;14.93;3.63;;;;;;;16.49;45.91;96068.59;5014963;28;20033;-83
2023/01/19 01:27:13;;;;;;;37.22;3.22;;;;;;;16.49;46.05;96076.72;5015948;28;20029;-83
2023/01/19 01:29:40;;;;;;;20.48;3.13;;;;;;;16.41;46.26;96074.81;5027473;28;20408;-83
2023/01/19 01:32:06;;;;;;;15.75;2.80;;;;;;;16.41;45.82;96082.06;5013869;28;20147;-82
2023/01/19 01:34:32;;;;;;;10.38;2.15;;;;;;;16.36;45.77;96069.09;5006292;28;20033;-82
2023/01/19 01:36:58;;;;;;;32.08;2.40;;;;;;;16.54;45.50;96080.63;5018111;28;20024;-83
2023/01/19 01:39:24;;;;;;;17.40;2.17;;;;;;;16.53;44.93;96068.09;5018145;28;20021;-83
2023/01/19 01:41:50;;;;;;;13.68;2.25;;;;;;;16.54;44.77;96075.22;5020767;28;20043;-83
2023/01/19 01:44:53;;;;;;;20.48;2.42;;;;;;;16.60;44.53;96077.25;5032407;28;20108;-83
2023/01/19 01:47:40;;;;;;;23.75;2.97;;;;;;;16.74;43.76;96057.66;5000169;28;20516;-83
2023/01/19 01:50:34;;;;;;;8.77;2.05;;;;;;;16.78;43.48;96050.06;5024417;28;20528;-82
2023/01/19 01:53:03;;;;;;;22.17;2.85;;;;;;;16.76;43.80;96066.41;5046494;28;20071;-83
2023/01/19 01:55:30;;;;;;;13.30;1.85;;;;;;;16.67;43.76;96072.84;5008193;28;20104;-84
2023/01/19 01:58:00;;;;;;;14.38;2.17;;;;;;;16.58;43.57;96048.72;5031270;28;20027;-83
2023/01/19 02:00:26;;;;;;;32.42;2.70;;;;;;;16.65;43.60;96055.13;5034259;28;20020;-76
2023/01/19 02:02:53;;;;;;;9.77;2.05;;;;;;;16.87;42.70;96059.00;5045501;28;20107;-83
2023/01/19 02:05:29;;;;;;;12.15;2.20;;;;;;;16.93;42.58;96061.03;5017690;28;20032;-82
2023/01/19 02:13:42;;;;;;;13.30;2.33;;;;;;;17.00;42.01;96053.94;5036507;28;20086;-83
2023/01/19 02:16:09;;;;;;;15.32;2.08;;;;;;;17.20;40.73;96029.06;5017040;28;20132;-82
2023/01/19 02:18:35;;;;;;;9.75;1.90;;;;;;;17.19;40.81;96026.53;5027572;28;20103;-82
2023/01/19 02:21:22;;;;;;;23.38;2.55;;;;;;;17.16;41.30;96016.94;5026530;28;20060;-82
2023/01/19 02:23:50;;;;;;;17.17;1.95;;;;;;;16.92;41.55;96008.84;5009320;28;20127;-83
2023/01/19 02:26:19;;;;;;;12.40;2.60;;;;;;;16.96;41.14;96014.75;5032905;28;20020;-81
2023/01/19 02:28:49;;;;;;;17.15;2.53;;;;;;;17.05;41.10;96019.97;5033517;28;20562;-82
2023/01/19 02:31:16;;;;;;;11.60;2.47;;;;;;;17.25;40.31;96013.19;5025418;28;20109;-82
2023/01/19 02:33:41;;;;;;;14.68;2.33;;;;;;;17.40;40.19;96020.56;5020251;28;20400;-83
2023/01/19 02:36:09;;;;;;;20.73;2.35;;;;;;;17.39;39.97;95984.56;5028878;28;20029;-82
2023/01/19 02:38:35;;;;;;;10.95;2.35;;;;;;;17.40;39.62;95978.16;5021476;28;20473;-82
2023/01/19 02:41:02;;;;;;;11.75;2.40;;;;;;;17.52;39.57;96000.22;5021829;28;21139;-83
2023/01/19 02:43:29;;;;;;;7.60;1.77;;;;;;;17.60;39.42;95989.41;5014566;28;20055;-83
2023/01/19 02:45:55;;;;;;;12.27;2.13;;;;;;;17.79;38.77;96014.16;5016707;28;20029;-83
2023/01/19 02:48:20;;;;;;;13.15;2.63;;;;;;;17.81;38.60;96000.47;5031006;28;20107;-83
2023/01/19 02:50:49;;;;;;;14.45;2.47;;;;;;;17.83;38.52;96026.31;5030125;28;20109;-82
2023/01/19 02:53:59;;;;;;;8.40;2.35;;;;;;;17.83;38.47;95999.28;5030879;28;20111;-83
2023/01/19 02:56:50;;;;;;;14.85;2.63;;;;;;;17.67;38.48;95991.25;4993515;28;20033;-83
2023/01/19 02:59:25;;;;;;;10.30;1.85;;;;;;;17.74;38.31;95994.94;5028533;28;20037;-81
2023/01/19 03:02:19;;;;;;;22.88;4.30;;;;;;;17.74;38.40;96004.91;4991634;28;20026;-83
2023/01/19 03:05:02;;;;;;;15.75;2.15;;;;;;;17.93;37.71;96017.16;5031181;28;20481;-82
2023/01/19 03:07:40;;;;;;;19.05;2.35;;;;;;;17.97;37.63;96022.00;5044958;28;20032;-82
2023/01/19 03:10:16;;;;;;;8.98;1.63;;;;;;;17.90;37.84;96031.03;5024770;28;20085;-82
2023/01/19 03:12:54;;;;;;;17.50;3.40;;;;;;;17.87;38.18;96016.81;5013401;28;20033;-83
2023/01/19 03:15:24;;;;;;;17.80;1.98;;;;;;;17.89;37.85;95989.59;5033352;28;20428;-83
2023/01/19 03:17:51;;;;;;;16.15;2.60;;;;;;;17.86;37.97;96012.44;5008124;28;20025;-82
2023/01/19 03:20:20;;;;;;;21.92;3.03;;;;;;;17.73;38.71;96014.88;5022238;28;20017;-83
2023/01/19 03:22:48;;;;;;;14.52;2.80;;;;;;;17.58;38.96;96002.25;5016713;28;20033;-83
2023/01/19 03:25:14;;;;;;;16.08;2.40;;;;;;;17.51;38.71;96009.34;5012661;28;20125;-82
2023/01/19 03:27:41;;;;;;;9.15;2.22;;;;;;;17.53;39.17;96021.69;5025236;28;20472;-83
2023/01/19 03:30:13;;;;;;;19.77;3.00;;;;;;;17.43;39.08;95999.44;5030400;28;20116;-82
2023/01/19 03:32:44;;;;;;;16.30;2.13;;;;;;;17.34;39.59;95997.78;5019850;28;20029;-83
2023/01/19 03:35:12;;;;;;;21.70;2.80;;;;;;;17.39;39.31;95995.38;5042408;28;20694;-83
2023/01/19 03:37:40;;;;;;;11.27;2.30;;;;;;;17.48;39.41;96004.28;5033064;28;20040;-83
2023/01/19 03:40:07;;;;;;;14.93;2.65;;;;;;;17.33;39.84;96001.50;5006662;28;20588;-83
2023/01/19 03:42:33;;;;;;;19.42;2.83;;;;;;;17.20;40.16;95990.38;5016240;28;20037;-83
2023/01/19 03:44:59;;;;;;;13.98;2.42;;;;;;;17.22;39.29;95999.16;4997416;28;20036;-83
2023/01/19 03:47:25;;;;;;;11.57;2.58;;;;;;;17.38;39.01;95999.09;5032132;28;20032;-83
2023/01/19 03:49:51;;;;;;;22.65;4.00;;;;;;;17.15;40.68;96000.88;5013045;28;20029;-83
2023/01/19 03:52:17;;;;;;;26.95;3.92;;;;;;;16.95;41.55;96010.38;5013162;28;20501;-83
2023/01/19 03:54:43;;;;;;;15.93;2.83;;;;;;;16.77;42.60;96011.41;5014387;28;20140;-82
2023/01/19 03:57:08;;;;;;;15.45;2.60;;;;;;;16.62;43.02;96029.31;5000396;28;20028;-82
2023/01/19 03:59:35;;;;;;;16.25;3.80;;;;;;;16.56;42.79;96021.03;5004872;28;20021;-83
2023/01/19 04:02:00;;;;;;;12.07;2.85;;;;;;;16.46;43.61;96023.88;5000631;28;20028;-83
2023/01/19 04:04:26;;;;;;;12.70;2.28;;;;;;;16.42;43.59;96025.25;4999999;28;20461;-84
2023/01/19 04:06:51;;;;;;;13.15;2.90;;;;;;;16.38;44.06;96018.50;5016038;28;20112;-83
2023/01/19 04:09:17;;;;;;;12.73;2.90;;;;;;;16.42;43.91;96025.25;4999866;28;20025;-82
2023/01/19 04:11:42;;;;;;;21.17;4.03;;;;;;;16.49;43.34;96030.81;5010752;28;20115;-83
2023/01/19 04:14:08;;;;;;;22.35;5.38;;;;;;;16.49;43.24;96012.75;5014114;28;20032;-83
2023/01/19 04:16:34;;;;;;;29.25;5.40;;;;;;;16.40;43.40;96018.31;5016561;28;20029;-83
2023/01/19 04:18:59;;;;;;;23.80;5.32;;;;;;;16.34;43.33;96014.44;5011167;28;20045;-82
2023/01/19 04:21:25;;;;;;;12.43;2.88;;;;;;;16.48;43.43;96004.84;5015018;28;20061;-83
2023/01/19 04:23:51;;;;;;;24.05;3.95;;;;;;;16.55;43.27;96022.91;5016302;28;20029;-83
2023/01/19 04:26:17;;;;;;;8.88;2.83;;;;;;;16.63;43.39;96020.22;5010818;28;20092;-83
2023/01/19 04:28:43;;;;;;;17.65;3.40;;;;;;;16.54;43.36;96012.25;4999726;28;20491;-83
2023/01/19 04:31:08;;;;;;;13.77;2.47;;;;;;;16.60;43.49;96025.09;5015968;28;20101;-83
2023/01/19 04:33:34;;;;;;;22.80;4.25;;;;;;;16.58;43.74;96038.75;5016087;28;20029;-83
2023/01/19 04:36:00;;;;;;;18.63;2.80;;;;;;;16.54;43.63;96037.44;5016445;28;20032;-82
2023/01/19 04:38:26;;;;;;;13.30;1.95;;;;;;;16.49;43.66;96028.13;5016436;28;20112;-82
2023/01/19 04:40:53;;;;;;;15.77;2.67;;;;;;;16.45;43.83;96026.75;4994695;28;20053;-82
2023/01/19 04:43:22;;;;;;;22.00;2.00;;;;;;;16.45;43.80;96021.38;4999722;28;20540;-83
2023/01/19 04:45:48;;;;;;;11.43;2.45;;;;;;;16.46;44.04;96045.47;4999788;28;20032;-83
2023/01/19 04:48:14;;;;;;;18.65;2.53;;;;;;;16.46;43.73;96033.81;5000135;28;20397;-82
2023/01/19 04:50:40;;;;;;;26.10;3.42;;;;;;;16.39;43.98;96008.53;4999452;28;20045;-83
2023/01/19 04:53:06;;;;;;;16.85;2.83;;;;;;;16.39;43.91;96024.72;4984586;28;20026;-84
2023/01/19 04:55:31;;;;;;;13.68;3.08;;;;;;;16.31;43.96;96025.56;4996295;28;20108;-83
2023/01/19 04:57:57;;;;;;;16.48;3.75;;;;;;;16.21;44.58;96028.41;5006626;28;20026;-83
2023/01/19 05:00:23;;;;;;;15.77;3.15;;;;;;;16.13;44.38;96027.56;5005590;28;20018;-83
2023/01/19 05:02:48;;;;;;;32.05;3.65;;;;;;;16.16;44.37;96032.63;5014354;28;20526;-83
2023/01/19 05:05:15;;;;;;;21.17;3.58;;;;;;;16.19;44.40;96049.34;5015902;28;20025;-83
2023/01/19 05:07:43;;;;;;;15.80;2.40;;;;;;;16.14;44.39;96034.66;4980744;28;20026;-82
2023/01/19 05:10:09;;;;;;;17.85;3.20;;;;;;;16.09;44.81;96048.63;4986249;28;20030;-81
2023/01/19 05:12:36;;;;;;;18.30;2.83;;;;;;;16.03;45.05;96043.03;5033651;28;20033;-84
2023/01/19 05:15:02;;;;;;;19.75;2.70;;;;;;;15.98;45.54;96048.94;4985341;28;20433;-83
2023/01/19 05:17:28;;;;;;;24.33;4.03;;;;;;;16.00;45.68;96046.06;4979657;28;20477;-83
2023/01/19 05:19:53;;;;;;;18.63;2.95;;;;;;;15.88;45.76;96050.94;4979132;28;20029;-82
2023/01/19 05:22:19;;;;;;;17.92;2.97;;;;;;;15.94;45.35;96060.22;4996049;28;20029;-82
2023/01/19 05:24:44;;;;;;;27.45;2.72;;;;;;;15.83;45.90;96047.91;4998644;28;20039;-83
2023/01/19 05:27:10;;;;;;;28.52;3.40;;;;;;;15.93;46.00;96074.72;5008504;28;20021;-82
2023/01/19 05:29:36;;;;;;;19.63;3.58;;;;;;;15.85;46.10;96062.06;5016381;28;20037;-83
2023/01/19 05:32:01;;;;;;;26.25;3.60;;;;;;;15.83;46.13;96072.16;4995365;28;20037;-84
2023/01/19 05:34:27;;;;;;;24.65;3.17;;;;;;;15.77;45.91;96072.81;4982033;28;20064;-84
2023/01/19 05:36:52;;;;;;;24.58;3.40;;;;;;;15.80;46.01;96079.72;4995182;28;20029;-84
2023/01/19 05:39:18;;;;;;;24.13;2.80;;;;;;;15.83;45.66;96090.19;5005397;28;20018;-83
2023/01/19 05:41:44;;;;;;;16.75;3.28;;;;;;;15.83;46.22;96096.44;4996946;28;20062;-84
2023/01/19 05:44:10;;;;;;;27.55;4.18;;;;;;;15.83;46.11;96090.19;4998373;28;20017;-83
2023/01/19 05:46:36;;;;;;;24.25;3.40;;;;;;;15.92;45.99;96092.75;4980194;28;20524;-83
2023/01/19 05:49:03;;;;;;;21.52;3.45;;;;;;;16.05;45.30;96086.91;4984768;28;20022;-83
2023/01/19 05:51:39;;;;;;;27.27;3.95;;;;;;;16.01;46.19;96093.63;4992164;28;20540;-83
2023/01/19 05:54:05;;;;;;;23.85;2.75;;;;;;;16.03;45.79;96088.91;4995110;28;20113;-83
2023/01/19 05:56:31;;;;;;;20.23;3.20;;;;;;;15.89;46.14;96076.06;4995950;28;20128;-83
2023/01/19 05:58:58;;;;;;;21.55;3.10;;;;;;;15.74;46.39;96075.84;5014305;28;20116;-83
2023/01/19 06:01:24;;;;;;;17.70;3.50;;;;;;;15.83;45.70;96058.69;5010798;28;20481;-83
2023/01/19 06:03:49;;;;;;;10.35;3.30;;;;;;;15.81;45.85;96065.25;4996396;28;20068;-83
2023/01/19 06:06:15;;;;;;;25.90;3.67;;;;;;;15.88;45.41;96072.50;4994415;28;20033;-83
2023/01/19 06:08:41;;;;;;;20.48;3.13;;;;;;;16.06;44.95;96069.69;5012939;28;20034;-83
2023/01/19 06:11:06;;;;;;;19.15;3.72;;;;;;;16.04;44.92;96069.03;4997284;28;20041;-83
2023/01/19 06:13:33;;;;;;;22.88;3.78;;;;;;;16.01;45.05;96069.34;4995135;28;20390;-81
2023/01/19 06:15:59;;;;;;;21.08;3.78;;;;;;;16.11;44.17;96078.16;4997330;28;20473;-82
2023/01/19 06:18:25;;;;;;;23.77;3.00;;;;;;;16.23;44.03;96079.53;5013732;28;20029;-82
2023/01/19 06:20:57;;;;;;;27.38;3.20;;;;;;;16.40;43.18;96096.56;4981542;28;20105;-82
2023/01/19 06:23:26;;;;;;;18.00;2.35;;;;;;;16.56;42.89;96093.94;5014846;28;20396;-82
2023/01/19 06:25:51;;;;;;;27.80;3.83;;;;;;;16.64;42.64;96089.38;5013708;28;20029;-82
2023/01/19 06:28:17;;;;;;;15.02;3.15;;;;;;;16.69;42.61;96084.34;5010440;28;20053;-84
2023/01/19 06:30:47;;;;;;;22.13;2.95;;;;;;;16.77;42.62;96094.28;5013709;28;20041;-82
2023/01/19 06:33:13;;;;;;;23.15;3.83;;;;;;;16.87;42.81;96107.63;5013662;28;20022;-83
2023/01/19 06:35:42;;;;;;;27.63;3.20;;;;;;;16.88;42.63;96098.50;5013840;28;20032;-83
2023/01/19 06:38:08;;;;;;;21.77;2.85;;;;;;;16.96;42.07;96076.88;4997313;28;20018;-83
2023/01/19 06:40:33;;;;;;;22.02;2.67;;;;;;;17.16;41.78;96105.25;5013628;28;20339;-83
2023/01/19 06:42:58;;;;;;;19.55;3.05;;;;;;;17.31;41.25;96108.94;5013373;28;20029;-82
2023/01/19 06:45:24;;;;;;;17.98;4.38;;;;;;;17.43;41.11;96117.53;4996910;28;20021;-82
2023/01/19 06:47:49;;;;;;;15.82;3.30;;;;;;;17.71;40.50;96116.13;5013370;28;20033;-82
2023/01/19 06:50:15;;;;;;;21.63;3.65;;;;;;;18.13;40.44;96135.59;4996648;28;20570;-84
2023/01/19 06:52:41;;;;;;;17.98;3.45;;;;;;;18.50;39.51;96125.94;5010882;28;20079;-84
2023/01/19 06:55:09;;;;;;;14.25;2.83;;;;;;;18.74;38.86;96129.34;4995155;28;20018;-84
2023/01/19 06:57:37;;;;;;;17.50;3.10;;;;;;;18.84;38.99;96137.22;4996968;28;20091;-82
2023/01/19 07:00:06;;;;;;;18.83;2.90;;;;;;;19.05;38.54;96142.81;5009925;28;20029;-81
2023/01/19 07:02:33;;;;;;;14.52;2.83;;;;;;;19.13;38.49;96131.06;5013530;28;20034;-77
2023/01/19 07:04:58;;;;;;;17.17;2.70;;;;;;;19.15;38.47;96123.59;5030550;28;20041;-77
2023/01/19 07:07:24;;;;;;;20.83;3.25;;;;;;;19.31;38.27;96126.16;5013001;28;20060;-77
2023/01/19 07:09:50;;;;;;;16.38;3.00;;;;;;;19.31;38.23;96131.59;5030713;28;20090;-77
2023/01/19 07:12:16;;;;;;;9.77;2.33;;;;;;;19.66;37.53;96130.91;5005800;28;20492;-81
2023/01/19 07:14:41;;;;;;;21.83;3.53;;;;;;;19.72;37.68;96134.78;5012552;28;20060;-77
2023/01/19 07:17:07;;;;;;;19.52;3.65;;;;;;;20.00;37.21;96141.22;5011737;28;20485;-78
2023/01/19 07:19:34;;;;;;;23.92;3.00;;;;;;;20.08;37.19;96135.72;5009032;28;20096;-77
2023/01/19 07:22:00;;;;;;;9.73;3.58;;;;;;;20.19;37.06;96135.22;4994692;28;20117;-74
2023/01/19 07:24:26;;;;;;;19.33;3.13;;;;;;;20.20;37.27;96145.06;4995227;28;20040;-80
2023/01/19 07:26:51;;;;;;;21.45;3.22;;;;;;;20.52;36.71;96149.25;5009066;28;20022;-77
2023/01/19 07:29:17;;;;;;;21.33;3.55;;;;;;;20.67;36.41;96143.78;5012022;28;20489;-78
2023/01/19 07:31:42;;;;;;;15.15;2.97;;;;;;;20.55;36.74;96140.72;5031933;28;20036;-80
2023/01/19 07:34:08;;;;;;;28.92;3.67;;;;;;;20.64;36.47;96150.44;5010916;28;20036;-80
2023/01/19 07:36:34;;;;;;;26.73;3.85;;;;;;;20.83;35.93;96151.69;5032169;28;20022;-79
2023/01/19 07:39:00;;;;;;;24.48;3.22;;;;;;;21.06;35.84;96149.66;4997778;28;20071;-78
2023/01/19 07:41:25;;;;;;;22.30;3.83;;;;;;;21.45;35.28;96135.59;5013201;28;20041;-79
2023/01/19 07:43:51;;;;;;;33.78;3.75;;;;;;;21.89;34.83;96151.66;5013938;28;20021;-79
2023/01/19 07:46:17;;;;;;;22.08;3.50;;;;;;;22.18;34.72;96145.97;5011453;28;20482;-79
2023/01/19 07:48:43;;;;;;;24.95;4.60;;;;;;;22.47;33.74;96147.59;4995851;28;20120;-79
2023/01/19 07:51:11;;;;;;;20.95;3.75;;;;;;;22.47;33.40;96153.03;4989516;28;20041;-80
2023/01/19 07:53:37;;;;;;;20.58;3.88;;;;;;;22.43;32.91;96146.28;4977766;28;20034;-80
2023/01/19 07:56:06;;;;;;;15.35;3.65;;;;;;;22.50;33.07;96139.00;4998330;28;20068;-80
2023/01/19 07:58:32;;;;;;;19.60;3.38;;;;;;;22.58;33.04;96144.25;5011690;28;20459;-80
2023/01/19 08:00:57;;;;;;;21.65;3.78;;;;;;;22.56;32.22;96130.00;4977975;28;20474;-80
2023/01/19 08:03:23;;;;;;;30.17;3.58;;;;;;;22.73;32.37;96136.81;5008893;28;20041;-79
2023/01/19 08:05:50;;;;;;;17.35;3.42;;;;;;;22.56;32.53;96127.28;5004091;28;20041;-79
2023/01/19 08:08:15;;;;;;;24.63;2.78;;;;;;;22.68;31.59;96131.13;5005497;28;20096;-80
2023/01/19 08:10:41;;;;;;;20.23;3.65;;;;;;;22.71;32.13;96138.91;5016767;28;20025;-80
2023/01/19 08:13:07;;;;;;;16.73;2.40;;;;;;;22.58;31.96;96144.25;5004950;28;20033;-79
2023/01/19 08:15:32;;;;;;;31.17;4.10;;;;;;;22.34;32.25;96142.06;4994126;28;20045;-79
2023/01/19 08:18:04;;;;;;;26.73;4.40;;;;;;;22.65;32.03;96139.72;5010471;28;20496;-79
2023/01/19 08:20:30;;;;;;;27.38;3.47;;;;;;;23.03;31.54;96170.91;4989241;28;20413;-79
2023/01/19 08:22:59;;;;;;;26.73;3.92;;;;;;;23.28;31.23;96151.22;5002633;28;20026;-81
2023/01/19 08:25:30;;;;;;;30.48;4.60;;;;;;;23.23;31.04;96149.09;4976980;28;20034;-81
2023/01/19 08:27:56;;;;;;;19.63;2.75;;;;;;;23.06;30.93;96145.09;5019088;28;20029;-78
2023/01/19 08:30:23;;;;;;;16.95;3.13;;;;;;;22.83;31.11;96140.00;4997304;28;20401;-78
2023/01/19 08:32:49;;;;;;;57.30;17.02;;;;;;;22.79;31.49;96140.63;5005349;28;20026;-79
2023/01/19 08:35:14;;;;;;;29.77;4.50;;;;;;;23.01;31.27;96161.25;5008465;28;20032;-79
2023/01/19 08:37:40;;;;;;;23.10;3.90;;;;;;;23.61;30.34;96179.41;5002117;28;20087;-78
2023/01/19 08:40:06;;;;;;;30.00;3.40;;;;;;;23.69;30.42;96171.84;4988647;28;20026;-78
2023/01/19 08:42:32;;;;;;;34.58;4.70;;;;;;;24.04;30.06;96183.38;4995111;28;20140;-78
2023/01/19 08:44:57;;;;;;;39.30;4.50;;;;;;;24.41;29.58;96191.97;5008887;28;20570;-78
2023/01/19 08:47:23;;;;;;;25.35;4.10;;;;;;;24.43;29.62;96181.66;5008024;28;20486;-78
2023/01/19 08:49:48;;;;;;;24.63;3.53;;;;;;;24.36;29.33;96175.38;5030042;28;20033;-78
2023/01/19 08:52:14;;;;;;;30.42;3.80;;;;;;;23.77;29.55;96159.88;5027345;28;20493;-78
2023/01/19 08:54:40;;;;;;;31.00;3.60;;;;;;;23.72;30.18;96165.13;4985235;28;20038;-79
2023/01/19 08:57:05;;;;;;;28.77;4.57;;;;;;;24.30;29.69;96189.91;5006661;28;20461;-78
2023/01/19 08:59:31;;;;;;;30.40;4.35;;;;;;;24.09;29.44;96175.38;4998061;28;20040;-79
2023/01/19 09:01:57;;;;;;;39.35;4.68;;;;;;;24.43;29.27;96185.22;5010173;28;20022;-79
2023/01/19 09:04:23;;;;;;;30.40;4.30;;;;;;;25.25;28.37;96212.72;4980789;28;20030;-78
2023/01/19 09:06:48;;;;;;;24.13;4.13;;;;;;;25.30;28.12;96176.44;5006097;28;20481;-78
2023/01/19 09:09:14;;;;;;;24.65;3.97;;;;;;;25.04;28.10;96182.91;4996199;28;20033;-78
2023/01/19 09:11:39;;;;;;;29.55;4.53;;;;;;;24.73;28.53;96164.50;5000110;28;20065;-78
2023/01/19 09:14:05;;;;;;;23.17;3.45;;;;;;;25.68;27.76;96193.72;4986952;28;20033;-79
2023/01/19 09:16:31;;;;;;;31.20;5.57;;;;;;;25.79;27.36;96175.72;5001184;28;20037;-79
2023/01/19 09:18:57;;;;;;;23.70;4.32;;;;;;;25.78;27.73;96184.97;5005435;28;20025;-79
2023/01/19 09:21:22;;;;;;;20.92;3.72;;;;;;;25.42;27.48;96166.47;5018775;28;20026;-79
2023/01/19 09:23:48;;;;;;;28.38;3.97;;;;;;;24.51;28.37;96129.47;5020457;28;20036;-79
2023/01/19 09:26:14;;;;;;;28.52;4.30;;;;;;;24.25;28.69;96139.44;5007738;28;20099;-80
2023/01/19 09:28:39;;;;;;;29.35;3.85;;;;;;;24.28;28.84;96140.91;5025895;28;20025;-79
2023/01/19 09:31:08;;;;;;;20.25;3.75;;;;;;;24.50;28.52;96136.00;4998551;28;20038;-79
2023/01/19 09:33:34;;;;;;;42.47;4.18;;;;;;;23.65;28.87;96101.50;4985028;28;20087;-79
2023/01/19 09:36:01;;;;;;;20.55;3.40;;;;;;;24.27;28.32;96134.59;4999903;28;20040;-79
2023/01/19 09:38:30;;;;;;;25.38;3.75;;;;;;;24.54;28.25;96126.31;4996847;28;20502;-79
2023/01/19 09:40:57;;;;;;;26.48;4.47;;;;;;;23.99;28.59;96123.09;4998332;28;20032;-78
2023/01/19 09:43:34;;;;;;;31.48;3.33;;;;;;;24.48;28.47;96138.13;5002604;28;20061;-79
2023/01/19 09:46:21;;;;;;;24.17;3.67;;;;;;;25.63;27.50;96140.63;5019147;28;20033;-78
2023/01/19 09:48:55;;;;;;;17.67;3.83;;;;;;;25.38;27.74;96123.34;5008850;28;20476;-78
2023/01/19 09:51:26;;;;;;;28.13;4.18;;;;;;;25.39;27.33;96114.03;5005916;28;20045;-78
2023/01/19 09:54:06;;;;;;;24.67;4.30;;;;;;;25.96;27.04;96110.22;5009982;28;20083;-78
2023/01/19 09:56:32;;;;;;;24.17;3.42;;;;;;;26.04;26.51;96104.44;5024799;28;20030;-79
2023/01/19 09:58:59;;;;;;;26.25;3.95;;;;;;;25.24;27.34;96084.25;5003580;28;20059;-81
2023/01/19 10:01:35;;;;;;;33.10;4.03;;;;;;;25.38;27.17;96090.50;4981902;28;20021;-79
2023/01/19 10:04:42;;;;;;;29.33;5.15;;;;;;;25.92;26.84;96107.09;5002711;28;20126;-79
2023/01/19 10:07:08;;;;;;;26.95;4.15;;;;;;;24.20;28.37;96051.81;4997047;28;20100;-80
2023/01/19 10:10:15;;;;;;;32.55;4.78;;;;;;;24.15;28.66;96067.13;5026429;28;20137;-78
2023/01/19 10:12:55;;;;;;;33.53;4.03;;;;;;;23.21;29.70;96034.72;4978573;28;20378;-79
2023/01/19 10:16:00;;;;;;;27.90;3.92;;;;;;;23.05;30.15;96042.47;5009633;28;20783;-80
2023/01/19 10:18:33;;;;;;;28.50;3.90;;;;;;;23.16;30.13;96041.88;4991827;28;20029;-80
2023/01/19 10:21:03;;;;;;;18.80;3.88;;;;;;;23.95;29.47;96077.28;4997951;28;20037;-80
2023/01/19 10:23:41;;;;;;;32.42;4.75;;;;;;;23.48;29.82;96043.75;4989047;28;20033;-78
2023/01/19 10:26:35;;;;;;;22.25;5.03;;;;;;;22.77;30.44;96017.25;5010316;28;20044;-80
2023/01/19 10:29:25;;;;;;;34.25;4.25;;;;;;;22.41;31.27;96012.16;4974193;28;20069;-79
2023/01/19 10:32:03;;;;;;;25.77;4.03;;;;;;;21.72;32.54;96008.72;5017677;28;20037;-80
2023/01/19 10:34:28;;;;;;;19.08;3.92;;;;;;;21.53;32.49;95988.53;4992721;28;20021;-78
2023/01/19 10:37:02;;;;;;;27.30;4.38;;;;;;;21.34;32.75;95975.63;5006966;28;20034;-79
2023/01/19 10:39:27;;;;;;;17.15;3.72;;;;;;;21.10;33.10;95971.50;4997914;28;20398;-78
2023/01/19 10:41:53;;;;;;;27.58;3.75;;;;;;;21.35;32.83;95985.50;5004392;28;20030;-79
2023/01/19 10:44:24;;;;;;;24.45;4.28;;;;;;;22.25;32.53;96012.50;4996498;28;20037;-79
2023/01/19 10:46:50;;;;;;;11.57;2.43;;;;;;;21.78;32.69;95989.66;4990428;28;20092;-79
2023/01/19 10:49:35;;;;;;;23.88;3.88;;;;;;;21.90;32.94;95998.97;4983637;28;20100;-80
2023/01/19 10:52:01;;;;;;;21.83;3.20;;;;;;;22.07;32.22;96000.31;4996257;28;20112;-80
2023/01/19 10:54:29;;;;;;;24.58;3.90;;;;;;;22.14;31.99;96005.78;4983712;28;20042;-80
2023/01/19 10:57:03;;;;;;;22.52;3.17;;;;;;;21.77;33.02;96003.50;4997963;28;20036;-80
2023/01/19 10:59:44;;;;;;;19.45;3.15;;;;;;;21.42;33.30;95997.22;4992450;28;20033;-80
2023/01/19 11:02:12;;;;;;;21.80;4.03;;;;;;;21.37;33.77;96002.44;5003862;28;20116;-81
2023/01/19 11:04:38;;;;;;;23.13;3.90;;;;;;;21.28;33.92;95987.31;5028023;28;20030;-80
2023/01/19 11:07:18;;;;;;;26.70;4.20;;;;;;;21.45;34.16;96000.41;4990951;28;20044;-80
2023/01/19 11:09:43;;;;;;;24.63;4.90;;;;;;;21.58;36.60;96022.25;5008149;28;20535;-79
2023/01/19 11:12:20;;;;;;;29.15;3.30;;;;;;;21.47;34.11;95992.03;4991363;28;20025;-79
2023/01/19 11:14:48;;;;;;;25.92;3.80;;;;;;;21.60;33.69;96003.81;5007966;28;20034;-81
2023/01/19 11:17:24;;;;;;;21.92;2.92;;;;;;;21.51;33.16;95996.03;4989418;28;20112;-80
2023/01/19 11:19:56;;;;;;;40.90;8.68;;;;;;;21.47;34.33;95994.75;4998746;28;20052;-80
2023/01/19 11:22:26;;;;;;;47.78;12.32;;;;;;;21.51;33.39;95993.31;4992644;28;20021;-80
2023/01/19 11:24:52;;;;;;;19.10;3.47;;;;;;;21.57;33.15;95984.34;5005795;28;20057;-81
2023/01/19 11:27:21;;;;;;;22.40;3.78;;;;;;;21.61;33.37;95991.06;4992183;28;20077;-81
2023/01/19 11:29:56;;;;;;;18.75;3.15;;;;;;;21.27;34.27;95989.19;5003379;28;20041;-80
2023/01/19 11:32:22;;;;;;;27.52;3.40;;;;;;;21.26;34.51;95989.38;4990306;28;20021;-81
2023/01/19 11:34:48;;;;;;;19.30;3.63;;;;;;;21.04;34.27;95992.13;4995404;28;20029;-86
2023/01/19 11:37:17;;;;;;;20.13;2.92;;;;;;;21.19;33.89;95993.94;4995170;28;20068;-80